createdAt,value
2018-08-10T00:02:01.500Z,71.94
2018-08-10T00:04:31.575Z,73.22
2018-08-10T00:07:01.596Z,72.70
2018-08-10T00:09:31.685Z,71.21
2018-08-10T00:12:01.671Z,70.70
2018-08-10T00:14:31.772Z,71.25
2018-08-10T00:17:01.907Z,69.87
2018-08-10T00:19:32.000Z,70.97
2018-08-10T00:22:02.145Z,70.39
2018-08-10T00:24:32.192Z,70.76
2018-08-10T00:27:02.286Z,69.52
2018-08-10T00:29:32.437Z,70.16
2018-08-10T00:32:02.606Z,70.24
2018-08-10T00:34:32.754Z,70.64
2018-08-10T00:37:02.871Z,70.80
2018-08-10T00:39:33.083Z,70.57
2018-08-10T00:42:03.259Z,71.20
2018-08-10T00:44:33.343Z,71.36
2018-08-10T00:47:03.388Z,70.84
2018-08-10T00:49:33.470Z,71.22
2018-08-10T00:52:03.541Z,71.67
2018-08-10T00:54:33.589Z,71.17
2018-08-10T00:57:04.944Z,71.26
2018-08-10T00:59:35.387Z,71.84
2018-08-10T01:02:05.741Z,72.69
2018-08-10T01:04:35.771Z,71.46
2018-08-10T01:07:06.267Z,71.48
2018-08-10T01:09:36.335Z,71.86
2018-08-10T01:12:06.382Z,72.25
2018-08-10T01:14:36.461Z,71.63
2018-08-10T01:17:06.755Z,72.15
2018-08-10T01:19:36.843Z,71.50
2018-08-10T01:22:07.418Z,71.80
2018-08-10T01:24:37.579Z,72.01
2018-08-10T01:27:11.683Z,71.92
2018-08-10T01:29:41.742Z,72.02
2018-08-10T01:32:11.815Z,70.85
2018-08-10T01:34:42.433Z,70.57
2018-08-10T01:37:12.599Z,71.17
2018-08-10T01:39:43.714Z,71.46
2018-08-10T01:42:13.802Z,71.17
2018-08-10T01:44:43.859Z,71.63
2018-08-10T01:47:14.071Z,71.30
2018-08-10T01:49:44.112Z,71.62
2018-08-10T01:52:14.254Z,71.33
2018-08-10T01:54:44.340Z,71.74
2018-08-10T01:57:14.728Z,71.65
2018-08-10T01:59:44.839Z,71.78
2018-08-10T02:02:14.963Z,71.83
2018-08-10T02:04:45.141Z,72.05
2018-08-10T02:07:15.252Z,72.21
2018-08-10T02:09:45.899Z,71.95
2018-08-10T02:12:15.943Z,72.49
2018-08-10T02:14:46.027Z,72.62
2018-08-10T02:17:16.081Z,72.27
2018-08-10T02:19:46.219Z,72.74
2018-08-10T02:22:16.308Z,72.18
2018-08-10T02:24:46.435Z,73.02
2018-08-10T02:27:16.519Z,73.15
2018-08-10T02:29:46.549Z,72.45
2018-08-10T02:32:16.665Z,72.91
2018-08-10T02:34:46.743Z,72.82
2018-08-10T02:37:16.820Z,72.87
2018-08-10T02:39:46.862Z,73.21
2018-08-10T02:42:16.987Z,72.65
2018-08-10T02:44:47.020Z,72.22
2018-08-10T02:47:21.135Z,72.68
2018-08-10T02:49:51.314Z,72.32
2018-08-10T02:52:21.810Z,71.87
2018-08-10T02:54:52.021Z,71.75
2018-08-10T02:57:22.344Z,72.03
2018-08-10T02:59:52.358Z,72.60
2018-08-10T03:02:22.739Z,72.58
2018-08-10T03:04:52.818Z,72.25
2018-08-10T03:07:23.063Z,72.01
2018-08-10T03:09:53.122Z,72.26
2018-08-10T03:12:23.354Z,71.97
2018-08-10T03:14:53.403Z,71.89
2018-08-10T03:17:23.658Z,72.81
2018-08-10T03:19:53.662Z,72.69
2018-08-10T03:22:23.851Z,73.42
2018-08-10T03:24:53.881Z,73.69
2018-08-10T03:27:24.038Z,73.92
2018-08-10T03:29:54.254Z,74.31
2018-08-10T03:32:24.382Z,74.45
2018-08-10T03:34:54.433Z,74.49
2018-08-10T03:37:24.571Z,74.08
2018-08-10T03:39:54.640Z,74.21
2018-08-10T03:42:24.727Z,74.13
2018-08-10T03:44:54.842Z,74.44
2018-08-10T03:47:24.943Z,74.43
2018-08-10T03:49:55.038Z,74.76
2018-08-10T03:52:25.107Z,74.36
2018-08-10T03:54:55.125Z,74.94
2018-08-10T03:57:25.196Z,74.96
2018-08-10T03:59:55.223Z,74.79
2018-08-10T04:02:25.313Z,75.25
2018-08-10T04:04:55.355Z,74.82
2018-08-10T04:07:25.576Z,74.59
2018-08-10T04:09:55.588Z,74.57
2018-08-10T04:12:25.715Z,74.62
2018-08-10T04:14:56.067Z,74.07
2018-08-10T04:17:27.219Z,74.19
2018-08-10T04:19:57.235Z,74.34
2018-08-10T04:22:27.515Z,74.83
2018-08-10T04:24:57.537Z,74.42
2018-08-10T04:27:27.806Z,74.51
2018-08-10T04:29:57.841Z,75.02
2018-08-10T04:32:28.110Z,75.27
2018-08-10T04:34:58.124Z,75.60
2018-08-10T04:37:28.437Z,75.92
2018-08-10T04:39:58.486Z,75.93
2018-08-10T04:42:28.736Z,75.81
2018-08-10T04:44:58.766Z,75.68
2018-08-10T04:47:29.123Z,76.04
2018-08-10T04:49:59.169Z,75.32
2018-08-10T04:52:29.354Z,75.46
2018-08-10T04:54:59.439Z,75.39
2018-08-10T04:57:29.667Z,75.55
2018-08-10T04:59:59.699Z,76.12
2018-08-10T05:02:29.887Z,75.67
2018-08-10T05:04:59.935Z,75.23
2018-08-10T05:07:30.739Z,75.67
2018-08-10T05:10:00.959Z,75.64
2018-08-10T05:12:32.607Z,75.71
2018-08-10T05:15:02.914Z,75.47
2018-08-10T05:17:33.110Z,75.49
2018-08-10T05:20:03.165Z,75.52
2018-08-10T05:22:33.535Z,74.24
2018-08-10T05:25:03.736Z,74.31
2018-08-10T05:27:33.911Z,73.63
2018-08-10T05:30:04.097Z,72.03
2018-08-10T05:32:34.321Z,72.09
2018-08-10T05:35:04.631Z,71.79
2018-08-10T05:37:34.724Z,71.63
2018-08-10T05:40:05.739Z,71.21
2018-08-10T05:42:35.969Z,71.74
2018-08-10T05:45:06.420Z,71.16
2018-08-10T05:47:36.613Z,71.19
2018-08-10T05:50:07.478Z,70.34
2018-08-10T05:52:37.697Z,69.39
2018-08-10T05:55:08.446Z,68.90
2018-08-10T05:57:38.750Z,68.97
2018-08-10T06:00:09.720Z,69.25
2018-08-10T06:02:39.821Z,69.60
2018-08-10T06:05:09.907Z,67.72
2018-08-10T06:07:40.039Z,67.14
2018-08-10T06:10:11.179Z,67.87
2018-08-10T06:12:41.318Z,68.11
2018-08-10T06:15:11.883Z,66.78
2018-08-10T06:17:42.316Z,68.23
2018-08-10T06:20:12.810Z,67.59
2018-08-10T06:22:42.981Z,67.90
2018-08-10T06:25:13.044Z,67.06
2018-08-10T06:27:43.158Z,66.82
2018-08-10T06:30:13.905Z,66.64
2018-08-10T06:32:44.666Z,66.98
2018-08-10T06:35:14.744Z,66.90
2018-08-10T06:37:44.822Z,66.36
2018-08-10T06:40:14.892Z,66.57
2018-08-10T06:42:45.007Z,64.63
2018-08-10T06:45:15.163Z,63.07
2018-08-10T06:47:45.159Z,63.84
2018-08-10T06:50:15.322Z,63.09
2018-08-10T06:52:45.265Z,62.89
2018-08-10T06:55:15.369Z,62.35
2018-08-10T06:57:45.423Z,61.78
2018-08-10T07:00:15.549Z,60.73
2018-08-10T07:02:45.565Z,62.32
2018-08-10T07:05:15.585Z,62.15
2018-08-10T07:07:45.624Z,59.92
2018-08-10T07:10:15.708Z,59.84
2018-08-10T07:12:45.705Z,56.80
2018-08-10T07:15:15.757Z,56.21
2018-08-10T07:17:46.561Z,55.38
2018-08-10T07:20:16.971Z,56.17
2018-08-10T07:22:47.797Z,53.91
2018-08-10T07:25:17.874Z,56.12
2018-08-10T07:27:47.945Z,54.81
2018-08-10T07:30:17.981Z,55.91
2018-08-10T07:32:47.958Z,52.65
2018-08-10T07:35:18.014Z,54.34
2018-08-10T07:37:48.056Z,55.49
2018-08-10T07:40:18.161Z,53.74
2018-08-10T07:42:48.448Z,54.58
2018-08-10T07:45:18.491Z,55.26
2018-08-10T07:47:48.528Z,53.18
2018-08-10T07:50:18.672Z,52.71
2018-08-10T07:52:48.726Z,52.40
2018-08-10T07:55:18.799Z,52.10
2018-08-10T07:57:48.811Z,50.84
2018-08-10T08:00:18.959Z,46.60
2018-08-10T08:02:49.051Z,48.10
2018-08-10T08:05:19.176Z,50.95
2018-08-10T08:07:49.318Z,46.93
2018-08-10T08:10:19.530Z,46.29
2018-08-10T08:12:49.569Z,46.14
2018-08-10T08:15:19.640Z,49.11
2018-08-10T08:17:49.778Z,45.72
2018-08-10T08:20:19.941Z,46.62
2018-08-10T08:22:50.239Z,44.48
2018-08-10T08:25:20.654Z,44.92
2018-08-10T08:27:50.695Z,44.38
2018-08-10T08:30:22.368Z,44.93
2018-08-10T08:32:52.448Z,44.38
2018-08-10T08:35:22.462Z,46.91
2018-08-10T08:37:52.574Z,42.07
2018-08-10T08:40:25.572Z,43.40
2018-08-10T08:42:55.743Z,46.49
2018-08-10T08:46:07.454Z,46.69
2018-08-10T08:48:39.469Z,45.68
2018-08-10T08:51:14.621Z,48.29
2018-08-10T08:53:44.688Z,49.76
2018-08-10T08:56:16.286Z,49.74
2018-08-10T08:58:47.821Z,49.54
2018-08-10T09:01:18.276Z,50.46
2018-08-10T09:05:01.140Z,48.51
2018-08-10T09:07:31.692Z,49.37
2018-08-10T09:10:02.964Z,47.35
2018-08-10T09:12:33.117Z,50.75
2018-08-10T09:15:05.412Z,53.15
2018-08-10T09:17:35.587Z,48.88
2018-08-10T09:20:07.124Z,51.15
2018-08-10T09:22:37.654Z,47.07
2018-08-10T09:25:10.615Z,46.09
2018-08-10T09:27:40.800Z,47.16
2018-08-10T09:30:13.547Z,47.80
2018-08-10T09:32:43.977Z,48.23
2018-08-10T09:35:14.821Z,43.76
2018-08-10T09:37:45.076Z,44.54
2018-08-10T09:40:17.799Z,43.75
2018-08-10T09:42:47.954Z,43.90
2018-08-10T09:45:18.823Z,43.25
2018-08-10T09:47:50.016Z,44.95
2018-08-10T09:50:20.776Z,44.74
2018-08-10T09:53:00.102Z,45.05
2018-08-10T09:55:33.393Z,45.37
2018-08-10T09:58:06.568Z,49.27
2018-08-10T10:00:41.729Z,45.23
2018-08-10T10:03:18.248Z,44.79
2018-08-10T10:05:49.327Z,45.75
2018-08-10T10:08:19.865Z,43.36
2018-08-10T10:10:49.908Z,43.59
2018-08-10T10:13:20.036Z,46.11
2018-08-10T10:15:50.117Z,44.86
2018-08-10T10:18:20.231Z,43.61
2018-08-10T10:20:50.530Z,45.78
2018-08-10T10:23:20.735Z,46.44
2018-08-10T10:25:50.771Z,46.87
2018-08-10T10:28:21.030Z,48.05
2018-08-10T10:30:51.073Z,46.96
2018-08-10T10:33:21.158Z,46.64
2018-08-10T10:35:51.279Z,47.36
2018-08-10T10:38:21.354Z,47.06
2018-08-10T10:40:51.441Z,46.46
2018-08-10T10:43:21.571Z,46.59
2018-08-10T10:45:51.635Z,47.27
2018-08-10T10:48:21.728Z,50.18
2018-08-10T10:50:51.826Z,49.95
2018-08-10T10:53:22.051Z,45.23
2018-08-10T10:55:52.143Z,43.75
2018-08-10T10:58:22.231Z,44.30
2018-08-10T11:00:52.398Z,46.62
2018-08-10T11:03:22.501Z,44.97
2018-08-10T11:05:52.528Z,48.83
2018-08-10T11:08:22.670Z,45.56
2018-08-10T11:10:52.733Z,45.27
2018-08-10T11:13:22.847Z,46.69
2018-08-10T11:15:52.917Z,47.97
2018-08-10T11:18:22.999Z,43.82
2018-08-10T11:20:53.177Z,46.34
2018-08-10T11:23:23.275Z,43.84
2018-08-10T11:25:53.482Z,40.87
2018-08-10T11:28:23.410Z,43.85
2018-08-10T11:30:53.550Z,43.43
2018-08-10T11:33:23.629Z,43.13
2018-08-10T11:35:53.730Z,43.43
2018-08-10T11:38:23.820Z,43.14
2018-08-10T11:40:53.952Z,43.21
2018-08-10T11:43:23.999Z,43.93
2018-08-10T11:45:54.128Z,42.86
2018-08-10T11:48:24.185Z,42.62
2018-08-10T11:50:54.267Z,44.40
2018-08-10T11:53:24.392Z,43.17
2018-08-10T11:55:54.518Z,43.31
2018-08-10T11:58:25.203Z,43.25
2018-08-10T12:00:55.379Z,44.71
2018-08-10T12:03:25.489Z,43.37
2018-08-10T12:05:55.638Z,45.65
2018-08-10T12:08:25.745Z,46.27
2018-08-10T12:10:55.866Z,43.36
2018-08-10T12:13:25.972Z,44.14
2018-08-10T12:15:56.095Z,44.92
2018-08-10T12:18:26.189Z,42.33
2018-08-10T12:20:56.322Z,40.80
2018-08-10T12:23:26.450Z,42.60
2018-08-10T12:25:56.569Z,42.50
2018-08-10T12:28:26.664Z,44.54
2018-08-10T12:30:56.775Z,43.23
2018-08-10T12:33:26.854Z,44.50
2018-08-10T12:35:56.951Z,45.68
2018-08-10T12:38:27.101Z,43.24
2018-08-10T12:40:57.229Z,43.81
2018-08-10T12:43:27.347Z,41.87
2018-08-10T12:45:57.478Z,41.58
2018-08-10T12:48:27.573Z,41.35
2018-08-10T12:50:57.696Z,42.16
2018-08-10T12:53:28.272Z,41.09
2018-08-10T12:55:58.441Z,41.69
2018-08-10T12:58:28.606Z,42.49
2018-08-10T13:00:58.757Z,42.53
2018-08-10T13:03:28.803Z,40.20
2018-08-10T13:05:58.953Z,40.74
2018-08-10T13:08:29.048Z,41.11
2018-08-10T13:10:59.139Z,43.08
2018-08-10T13:13:29.211Z,40.49
2018-08-10T13:15:59.698Z,41.28
2018-08-10T13:18:29.907Z,42.90
2018-08-10T13:20:59.943Z,40.80
2018-08-10T13:23:30.019Z,40.67
2018-08-10T13:26:00.091Z,39.95
2018-08-10T13:28:30.176Z,41.22
2018-08-10T13:31:00.742Z,40.71
2018-08-10T13:33:30.860Z,41.93
2018-08-10T13:36:00.955Z,42.57
2018-08-10T13:38:31.334Z,40.26
2018-08-10T13:41:01.490Z,40.84
2018-08-10T13:43:31.581Z,39.87
2018-08-10T13:46:01.678Z,40.15
2018-08-10T13:48:32.105Z,40.86
2018-08-10T13:51:02.319Z,41.28
2018-08-10T13:53:32.398Z,41.28
2018-08-10T13:56:02.596Z,41.48
2018-08-10T13:58:32.714Z,43.15
2018-08-10T14:01:02.843Z,40.99
2018-08-10T14:03:33.077Z,41.59
2018-08-10T14:06:03.307Z,41.01
2018-08-10T14:08:33.538Z,39.57
2018-08-10T14:11:03.762Z,40.37
2018-08-10T14:13:33.850Z,38.59
2018-08-10T14:16:04.085Z,39.61
2018-08-10T14:18:34.267Z,38.59
2018-08-10T14:21:04.476Z,37.00
2018-08-10T14:23:34.580Z,37.91
2018-08-10T14:26:05.240Z,37.46
2018-08-10T14:28:35.402Z,38.05
2018-08-10T14:31:05.570Z,38.04
2018-08-10T14:33:35.649Z,39.83
2018-08-10T14:36:07.523Z,41.14
2018-08-10T14:38:38.110Z,36.72
2018-08-10T14:41:08.285Z,35.82
2018-08-10T14:43:38.835Z,35.86
2018-08-10T14:46:09.649Z,36.88
2018-08-10T14:48:40.218Z,35.79
2018-08-10T14:51:10.357Z,36.19
2018-08-10T14:53:40.946Z,36.21
2018-08-10T14:56:11.038Z,36.38
2018-08-10T14:58:41.217Z,37.66
2018-08-10T15:01:11.365Z,36.89
2018-08-10T15:03:41.430Z,38.69
2018-08-10T15:06:11.564Z,37.84
2018-08-10T15:08:41.756Z,37.85
2018-08-10T15:11:11.974Z,39.42
2018-08-10T15:13:42.112Z,37.66
2018-08-10T15:16:12.309Z,37.20
2018-08-10T15:18:42.611Z,36.01
2018-08-10T15:21:12.700Z,36.75
2018-08-10T15:23:42.829Z,38.47
2018-08-10T15:26:12.962Z,37.06
2018-08-10T15:28:43.135Z,38.78
2018-08-10T15:31:13.323Z,37.62
2018-08-10T15:33:43.863Z,37.09
2018-08-10T15:36:13.937Z,37.32
2018-08-10T15:38:44.061Z,39.34
2018-08-10T15:41:14.180Z,39.09
2018-08-10T15:43:45.878Z,40.54
2018-08-10T15:46:15.972Z,40.82
2018-08-10T15:48:46.514Z,38.04
2018-08-10T15:51:16.686Z,38.32
2018-08-10T15:53:47.032Z,36.91
2018-08-10T15:56:17.281Z,38.34
2018-08-10T15:58:47.636Z,38.68
2018-08-10T16:01:18.351Z,38.03
2018-08-10T16:03:48.566Z,36.50
2018-08-10T16:06:18.785Z,37.75
2018-08-10T16:08:48.941Z,39.64
2018-08-10T16:11:19.106Z,37.40
2018-08-10T16:13:49.234Z,39.52
2018-08-10T16:16:19.474Z,37.45
2018-08-10T16:18:49.594Z,36.51
2018-08-10T16:21:19.751Z,35.31
2018-08-10T16:23:49.945Z,35.08
2018-08-10T16:26:20.064Z,37.47
2018-08-10T16:28:50.222Z,35.91
2018-08-10T16:31:21.023Z,35.57
2018-08-10T16:33:51.789Z,35.04
2018-08-10T16:36:21.921Z,35.76
2018-08-10T16:38:52.772Z,34.37
2018-08-10T16:41:22.973Z,34.88
2018-08-10T16:43:53.151Z,35.36
2018-08-10T16:46:23.328Z,36.60
2018-08-10T16:48:53.500Z,35.83
2018-08-10T16:51:23.650Z,36.83
2018-08-10T16:53:53.764Z,35.99
2018-08-10T16:56:23.835Z,36.60
2018-08-10T16:58:53.998Z,37.16
2018-08-10T17:01:24.063Z,37.37
2018-08-10T17:03:54.130Z,38.35
2018-08-10T17:06:24.163Z,38.41
2018-08-10T17:08:54.475Z,38.75
2018-08-10T17:11:26.081Z,39.54
2018-08-10T17:13:57.181Z,39.35
2018-08-10T17:16:27.363Z,39.24
2018-08-10T17:18:57.505Z,40.74
2018-08-10T17:21:27.623Z,40.52
2018-08-10T17:23:57.862Z,40.81
2018-08-10T17:26:27.929Z,41.30
2018-08-10T17:28:58.149Z,41.28
2018-08-10T17:31:28.292Z,41.72
2018-08-10T17:33:58.382Z,41.39
2018-08-10T17:36:28.428Z,41.06
2018-08-10T17:38:58.560Z,41.41
2018-08-10T17:41:28.608Z,40.94
2018-08-10T17:43:58.703Z,41.86
2018-08-10T17:46:28.807Z,41.82
2018-08-10T17:48:58.941Z,41.44
2018-08-10T17:51:29.154Z,40.13
2018-08-10T17:53:59.542Z,40.79
2018-08-10T17:56:30.526Z,40.36
2018-08-10T17:59:00.926Z,40.59
2018-08-10T18:01:30.974Z,41.13
2018-08-10T18:04:01.035Z,41.43
2018-08-10T18:06:31.089Z,42.01
2018-08-10T18:09:01.224Z,42.87
2018-08-10T18:11:31.307Z,44.08
2018-08-10T18:14:01.395Z,44.39
2018-08-10T18:16:31.535Z,43.55
2018-08-10T18:19:01.949Z,44.46
2018-08-10T18:21:32.082Z,44.89
2018-08-10T18:24:03.174Z,44.50
2018-08-10T18:26:33.275Z,47.39
2018-08-10T18:29:03.371Z,48.80
2018-08-10T18:31:33.446Z,49.61
2018-08-10T18:34:03.598Z,50.49
2018-08-10T18:36:33.641Z,51.22
2018-08-10T18:39:04.667Z,51.58
2018-08-10T18:41:34.749Z,50.40
2018-08-10T18:44:05.118Z,51.95
2018-08-10T18:46:36.497Z,52.80
2018-08-10T18:49:06.850Z,52.65
2018-08-10T18:51:38.023Z,52.70
2018-08-10T18:54:08.360Z,53.54
2018-08-10T18:56:39.476Z,52.99
2018-08-10T18:59:09.665Z,53.89
2018-08-10T19:01:39.865Z,54.13
2018-08-10T19:04:10.060Z,54.43
2018-08-10T19:06:40.423Z,53.78
2018-08-10T19:09:11.773Z,53.82
2018-08-10T19:11:41.898Z,54.30
2018-08-10T19:14:12.021Z,55.01
2018-08-10T19:16:42.140Z,55.84
2018-08-10T19:19:12.374Z,56.10
2018-08-10T19:21:42.538Z,56.16
2018-08-10T19:24:12.630Z,56.38
2018-08-10T19:26:42.772Z,55.24
2018-08-10T19:29:12.939Z,55.04
2018-08-10T19:31:43.127Z,55.97
2018-08-10T19:34:13.220Z,56.84
2018-08-10T19:36:43.376Z,56.58
2018-08-10T19:39:13.470Z,57.80
2018-08-10T19:41:43.680Z,56.77
2018-08-10T19:44:13.759Z,57.26
2018-08-10T19:46:43.972Z,57.42
2018-08-10T19:49:13.986Z,58.11
2018-08-10T19:51:44.072Z,57.72
2018-08-10T19:54:14.148Z,56.39
2018-08-10T19:56:44.343Z,56.99
2018-08-10T19:59:14.390Z,56.69
2018-08-10T20:01:44.537Z,56.22
2018-08-10T20:04:14.602Z,56.20
2018-08-10T20:06:44.683Z,56.78
2018-08-10T20:09:14.760Z,57.90
2018-08-10T20:11:44.844Z,57.17
2018-08-10T20:14:15.033Z,56.94
2018-08-10T20:16:45.171Z,58.32
2018-08-10T20:19:15.236Z,57.76
2018-08-10T20:21:45.318Z,57.42
2018-08-10T20:24:15.452Z,57.48
2018-08-10T20:26:45.614Z,57.52
2018-08-10T20:29:15.679Z,57.46
2018-08-10T20:31:45.810Z,57.80
2018-08-10T20:34:15.965Z,58.23
2018-08-10T20:36:46.061Z,58.04
2018-08-10T20:39:16.147Z,57.52
2018-08-10T20:41:46.212Z,58.47
2018-08-10T20:44:16.308Z,58.34
2018-08-10T20:46:46.364Z,58.40
2018-08-10T20:49:16.539Z,58.41
2018-08-10T20:51:46.651Z,57.99
2018-08-10T20:54:17.636Z,57.19
2018-08-10T20:56:47.750Z,57.84
2018-08-10T20:59:17.819Z,58.60
2018-08-10T21:01:48.065Z,58.28
2018-08-10T21:04:18.281Z,57.37
2018-08-10T21:06:48.366Z,58.33
2018-08-10T21:09:18.467Z,57.95
2018-08-10T21:11:48.642Z,59.53
2018-08-10T21:14:18.729Z,58.96
2018-08-10T21:16:48.822Z,58.78
2018-08-10T21:19:18.874Z,58.50
2018-08-10T21:21:49.022Z,58.64
2018-08-10T21:24:19.102Z,58.50
2018-08-10T21:26:49.247Z,58.52
2018-08-10T21:29:19.347Z,59.41
2018-08-10T21:31:50.385Z,59.06
2018-08-10T21:34:20.495Z,59.45
2018-08-10T21:36:50.638Z,59.71
2018-08-10T21:39:20.720Z,59.20
2018-08-10T21:41:50.839Z,60.13
2018-08-10T21:44:20.905Z,59.94
2018-08-10T21:46:50.990Z,59.42
2018-08-10T21:49:21.115Z,59.78
2018-08-10T21:51:51.231Z,59.84
2018-08-10T21:54:21.319Z,59.59
2018-08-10T21:56:51.418Z,59.87
2018-08-10T21:59:21.614Z,60.16
2018-08-10T22:01:51.853Z,60.08
2018-08-10T22:04:22.000Z,59.97
2018-08-10T22:06:52.098Z,60.13
2018-08-10T22:09:22.251Z,60.50
2018-08-10T22:11:52.307Z,60.29
2018-08-10T22:14:27.494Z,60.70
2018-08-10T22:17:02.622Z,60.84
2018-08-10T22:19:32.746Z,60.99
2018-08-10T22:22:02.807Z,61.24
2018-08-10T22:24:32.936Z,60.57
2018-08-10T22:27:03.066Z,60.87
2018-08-10T22:29:33.256Z,60.70
2018-08-10T22:32:03.380Z,60.63
2018-08-10T22:34:33.486Z,60.84
2018-08-10T22:37:03.541Z,61.07
2018-08-10T22:39:33.633Z,60.90
2018-08-10T22:42:03.749Z,61.48
2018-08-10T22:44:33.855Z,60.99
2018-08-10T22:47:03.963Z,61.37
2018-08-10T22:49:34.007Z,60.91
2018-08-10T22:52:04.085Z,61.38
2018-08-10T22:54:34.187Z,61.06
2018-08-10T22:57:04.319Z,61.63
2018-08-10T22:59:34.402Z,61.05
2018-08-10T23:02:04.639Z,60.69
2018-08-10T23:04:34.760Z,60.98
2018-08-10T23:07:04.799Z,61.35
2018-08-10T23:09:34.942Z,60.99
2018-08-10T23:12:05.066Z,60.91
2018-08-10T23:14:35.277Z,61.16
2018-08-10T23:17:05.294Z,61.20
2018-08-10T23:19:35.439Z,61.32
2018-08-10T23:22:05.588Z,60.81
2018-08-10T23:24:35.702Z,60.96
2018-08-10T23:27:05.881Z,59.77
2018-08-10T23:29:36.068Z,59.96
2018-08-10T23:32:06.213Z,59.81
2018-08-10T23:34:36.323Z,60.11
2018-08-10T23:37:06.505Z,60.48
2018-08-10T23:39:36.633Z,60.36
2018-08-10T23:42:06.706Z,60.19
2018-08-10T23:44:36.838Z,60.36
2018-08-10T23:47:07.197Z,59.68
2018-08-10T23:49:37.326Z,59.76
2018-08-10T23:52:07.505Z,59.99
2018-08-10T23:54:37.591Z,59.56
2018-08-10T23:57:07.753Z,59.52
2018-08-10T23:59:37.924Z,59.89
